createdAt,value
2023-05-20T00:00:53.214Z,16.80
2023-05-20T00:02:56.061Z,16.80
2023-05-20T00:04:59.047Z,16.80
2023-05-20T00:07:01.983Z,16.90
2023-05-20T00:09:04.847Z,16.80
2023-05-20T00:11:07.734Z,16.70
2023-05-20T00:13:10.514Z,16.70
2023-05-20T00:15:13.320Z,16.70
2023-05-20T00:17:17.626Z,16.70
2023-05-20T00:19:20.630Z,16.80
2023-05-20T00:21:23.613Z,16.70
2023-05-20T00:23:26.359Z,16.70
2023-05-20T00:25:31.074Z,16.70
2023-05-20T00:27:33.819Z,16.70
2023-05-20T00:29:36.586Z,16.90
2023-05-20T00:31:39.391Z,16.90
2023-05-20T00:33:43.552Z,16.80
2023-05-20T00:35:46.336Z,16.80
2023-05-20T00:37:49.134Z,16.70
2023-05-20T00:39:52.129Z,16.80
2023-05-20T00:41:54.916Z,17.00
2023-05-20T00:43:58.024Z,16.90
2023-05-20T00:46:02.255Z,16.90
2023-05-20T00:48:06.038Z,17.00
2023-05-20T00:50:11.671Z,17.00
2023-05-20T00:52:15.759Z,16.90
2023-05-20T00:54:18.605Z,16.90
2023-05-20T00:56:22.083Z,16.80
2023-05-20T00:58:24.938Z,16.80
2023-05-20T01:00:27.999Z,16.90
2023-05-20T01:02:31.529Z,16.80
2023-05-20T01:04:35.009Z,16.90
2023-05-20T01:06:39.195Z,16.90
2023-05-20T01:08:42.540Z,17.00
2023-05-20T01:10:50.402Z,16.90
2023-05-20T01:12:57.246Z,16.90
2023-05-20T01:15:06.444Z,16.80
2023-05-20T01:17:12.648Z,16.90
2023-05-20T01:19:36.063Z,16.80
2023-05-20T01:21:40.994Z,16.70
2023-05-20T01:23:45.522Z,16.70
2023-05-20T01:25:48.302Z,16.60
2023-05-20T01:27:52.904Z,16.50
2023-05-20T01:29:55.747Z,16.60
2023-05-20T01:32:00.378Z,16.50
2023-05-20T01:34:04.137Z,16.50
2023-05-20T01:36:08.231Z,16.40
2023-05-20T01:38:12.340Z,16.50
2023-05-20T01:40:18.188Z,16.50
2023-05-20T01:42:21.849Z,16.50
2023-05-20T01:44:24.951Z,16.60
2023-05-20T01:46:27.800Z,16.60
2023-05-20T01:48:30.663Z,16.60
2023-05-20T01:50:33.428Z,16.60
2023-05-20T01:52:36.324Z,16.50
2023-05-20T01:54:39.246Z,16.50
2023-05-20T01:56:43.376Z,16.50
2023-05-20T01:58:46.096Z,16.50
2023-05-20T02:00:48.944Z,16.50
2023-05-20T02:02:51.922Z,16.60
2023-05-20T02:04:55.754Z,16.60
2023-05-20T02:06:58.518Z,16.50
2023-05-20T02:09:01.292Z,16.60
2023-05-20T02:11:04.059Z,16.50
2023-05-20T02:13:08.169Z,16.40
2023-05-20T02:15:11.373Z,16.50
2023-05-20T02:17:16.322Z,16.40
2023-05-20T02:19:23.921Z,16.50
2023-05-20T02:21:27.392Z,16.50
2023-05-20T02:23:30.213Z,16.40
2023-05-20T02:25:33.486Z,16.40
2023-05-20T02:27:36.452Z,16.50
2023-05-20T02:29:40.585Z,16.50
2023-05-20T02:31:43.380Z,16.40
2023-05-20T02:33:46.521Z,16.50
2023-05-20T02:35:49.300Z,16.50
2023-05-20T02:37:52.062Z,16.60
2023-05-20T02:39:56.164Z,16.50
2023-05-20T02:41:58.891Z,16.40
2023-05-20T02:44:01.624Z,16.40
2023-05-20T02:46:06.039Z,16.30
2023-05-20T02:48:09.007Z,16.20
2023-05-20T02:50:12.172Z,16.30
2023-05-20T02:52:16.120Z,16.40
2023-05-20T02:54:19.217Z,16.30
2023-05-20T02:56:22.011Z,16.30
2023-05-20T02:58:26.482Z,16.30
2023-05-20T03:00:31.242Z,16.40
2023-05-20T03:02:35.642Z,16.30
2023-05-20T03:04:39.185Z,16.40
2023-05-20T03:06:44.396Z,16.50
2023-05-20T03:08:47.326Z,16.40
2023-05-20T03:10:50.412Z,16.50
2023-05-20T03:12:53.206Z,16.50
2023-05-20T03:14:55.982Z,16.40
2023-05-20T03:17:00.140Z,16.40
2023-05-20T03:19:04.440Z,16.40
2023-05-20T03:21:07.368Z,16.40
2023-05-20T03:23:11.078Z,16.40
2023-05-20T03:25:13.875Z,16.40
2023-05-20T03:27:16.698Z,16.40
2023-05-20T03:29:19.628Z,16.40
2023-05-20T03:31:22.465Z,16.30
2023-05-20T03:33:26.301Z,16.30
2023-05-20T03:35:30.481Z,16.40
2023-05-20T03:37:33.483Z,16.40
2023-05-20T03:39:36.282Z,16.50
2023-05-20T03:41:39.056Z,16.50
2023-05-20T03:43:42.035Z,16.50
2023-05-20T03:45:44.868Z,16.50
2023-05-20T03:47:47.709Z,16.50
2023-05-20T03:49:50.601Z,16.50
2023-05-20T03:51:54.728Z,16.50
2023-05-20T03:53:57.652Z,16.50
2023-05-20T03:56:00.482Z,16.40
2023-05-20T03:58:03.286Z,16.50
2023-05-20T04:00:10.984Z,16.50
2023-05-20T04:02:13.854Z,16.50
2023-05-20T04:04:16.763Z,16.40
2023-05-20T04:06:19.535Z,16.40
2023-05-20T04:08:26.061Z,16.40
2023-05-20T04:10:29.142Z,16.40
2023-05-20T04:12:32.505Z,16.40
2023-05-20T04:14:35.736Z,16.40
2023-05-20T04:16:38.900Z,16.40
2023-05-20T04:18:41.787Z,16.40
2023-05-20T04:20:44.750Z,16.40
2023-05-20T04:22:48.261Z,16.40
2023-05-20T04:24:52.391Z,16.40
2023-05-20T04:26:55.249Z,16.30
2023-05-20T04:28:59.040Z,16.30
2023-05-20T04:31:02.806Z,16.20
2023-05-20T04:33:06.268Z,16.20
2023-05-20T04:35:12.079Z,16.30
2023-05-20T04:37:15.532Z,16.30
2023-05-20T04:39:18.978Z,16.30
2023-05-20T04:41:24.525Z,16.40
2023-05-20T04:43:29.955Z,16.40
2023-05-20T04:45:33.734Z,16.40
2023-05-20T04:47:38.829Z,16.50
2023-05-20T04:49:42.245Z,16.50
2023-05-20T04:51:46.859Z,16.50
2023-05-20T04:53:50.814Z,16.50
2023-05-20T04:55:56.857Z,16.40
2023-05-20T04:58:01.444Z,16.50
2023-05-20T05:00:07.644Z,16.60
2023-05-20T05:02:10.599Z,16.70
2023-05-20T05:04:13.671Z,16.50
2023-05-20T05:06:16.439Z,16.60
2023-05-20T05:08:19.163Z,16.60
2023-05-20T05:10:23.379Z,16.70
2023-05-20T05:12:26.121Z,16.60
2023-05-20T05:14:30.219Z,16.60
2023-05-20T05:16:33.074Z,16.70
2023-05-20T05:18:36.420Z,16.80
2023-05-20T05:20:39.242Z,16.90
2023-05-20T05:22:42.040Z,16.90
2023-05-20T05:24:44.816Z,17.00
2023-05-20T05:26:47.596Z,17.00
2023-05-20T05:28:50.527Z,17.00
2023-05-20T05:30:56.007Z,17.00
2023-05-20T05:32:59.020Z,17.10
2023-05-20T05:35:01.813Z,17.10
2023-05-20T05:37:04.726Z,17.20
2023-05-20T05:39:07.521Z,17.30
2023-05-20T05:41:10.309Z,17.30
2023-05-20T05:43:13.088Z,17.20
2023-05-20T05:45:15.859Z,17.10
2023-05-20T05:47:20.292Z,17.10
2023-05-20T05:49:23.095Z,17.10
2023-05-20T05:51:27.877Z,17.10
2023-05-20T05:53:30.783Z,17.00
2023-05-20T05:55:33.884Z,16.90
2023-05-20T05:57:36.936Z,16.90
2023-05-20T05:59:39.849Z,16.90
2023-05-20T06:01:42.783Z,17.00
2023-05-20T06:03:47.049Z,17.00
2023-05-20T06:05:49.913Z,17.00
2023-05-20T06:07:52.699Z,16.90
2023-05-20T06:09:55.482Z,16.90
2023-05-20T06:11:58.336Z,16.90
2023-05-20T06:14:01.952Z,16.90
2023-05-20T06:16:05.409Z,16.80
2023-05-20T06:18:08.446Z,16.90
2023-05-20T06:20:13.638Z,16.90
2023-05-20T06:22:16.382Z,16.90
2023-05-20T06:24:19.156Z,16.90
2023-05-20T06:26:22.704Z,16.90
2023-05-20T06:28:25.581Z,17.00
2023-05-20T06:30:28.360Z,17.10
2023-05-20T06:32:31.266Z,17.20
2023-05-20T06:34:34.160Z,17.30
2023-05-20T06:36:38.327Z,17.40
2023-05-20T06:38:41.099Z,17.50
2023-05-20T06:40:43.873Z,17.50
2023-05-20T06:42:46.618Z,17.50
2023-05-20T06:44:49.397Z,17.50
2023-05-20T06:46:52.501Z,17.30
2023-05-20T06:48:55.485Z,17.40
2023-05-20T06:50:58.289Z,17.40
2023-05-20T06:53:02.418Z,17.40
2023-05-20T06:55:05.947Z,17.40
2023-05-20T06:57:09.688Z,17.30
2023-05-20T06:59:12.478Z,17.40
2023-05-20T07:01:17.802Z,17.40
2023-05-20T07:03:21.186Z,17.50
2023-05-20T07:05:24.462Z,17.50
2023-05-20T07:07:27.405Z,17.60
2023-05-20T07:09:31.491Z,17.50
2023-05-20T07:11:34.354Z,17.50
2023-05-20T07:13:37.220Z,17.70
2023-05-20T07:15:40.027Z,17.70
2023-05-20T07:17:42.925Z,17.70
2023-05-20T07:19:45.786Z,17.80
2023-05-20T07:21:49.830Z,17.90
2023-05-20T07:23:52.619Z,17.90
2023-05-20T07:25:56.765Z,17.80
2023-05-20T07:28:00.438Z,17.80
2023-05-20T07:30:03.381Z,17.70
2023-05-20T07:32:07.187Z,17.80
2023-05-20T07:34:10.202Z,17.90
2023-05-20T07:36:13.000Z,17.90
2023-05-20T07:38:16.280Z,17.90
2023-05-20T07:40:19.388Z,18.00
2023-05-20T07:42:23.529Z,18.00
2023-05-20T07:46:30.086Z,18.50
2023-05-20T07:48:32.908Z,18.70
2023-05-20T07:50:36.026Z,18.80
2023-05-20T07:52:54.559Z,18.80
2023-05-20T07:54:58.576Z,18.90
2023-05-20T07:57:02.136Z,18.90
2023-05-20T07:59:06.246Z,18.90
2023-05-20T08:01:09.317Z,19.00
2023-05-20T08:03:12.471Z,18.90
2023-05-20T08:05:15.404Z,18.80
2023-05-20T08:07:18.158Z,18.70
2023-05-20T08:09:21.740Z,18.70
2023-05-20T08:11:24.644Z,18.70
2023-05-20T08:13:27.699Z,18.60
2023-05-20T08:15:31.901Z,18.70
2023-05-20T08:17:35.129Z,18.60
2023-05-20T08:19:38.009Z,18.70
2023-05-20T08:21:40.862Z,18.70
2023-05-20T08:23:43.630Z,18.90
2023-05-20T08:25:48.333Z,19.20
2023-05-20T08:27:51.146Z,19.40
2023-05-20T08:29:54.008Z,19.40
2023-05-20T08:32:00.165Z,19.40
2023-05-20T08:34:03.075Z,19.60
2023-05-20T08:36:09.236Z,19.90
2023-05-20T08:38:12.210Z,19.90
2023-05-20T08:40:15.917Z,19.90
2023-05-20T08:42:23.192Z,20.00
2023-05-20T08:44:28.978Z,20.10
2023-05-20T08:46:33.399Z,20.00
2023-05-20T08:48:37.883Z,19.90
2023-05-20T08:50:41.111Z,19.70
2023-05-20T08:52:45.504Z,19.50
2023-05-20T08:54:51.723Z,19.40
2023-05-20T08:56:56.037Z,19.30
2023-05-20T08:58:58.839Z,19.30
2023-05-20T09:01:02.134Z,19.50
2023-05-20T09:03:05.679Z,19.50
2023-05-20T09:05:12.076Z,19.70
2023-05-20T09:07:14.853Z,20.00
2023-05-20T09:09:17.917Z,20.10
2023-05-20T09:11:21.836Z,20.10
2023-05-20T09:13:25.530Z,20.40
2023-05-20T09:15:28.502Z,20.50
2023-05-20T09:17:31.593Z,20.60
2023-05-20T09:19:34.850Z,20.60
2023-05-20T09:21:39.875Z,20.70
2023-05-20T09:23:49.126Z,20.90
2023-05-20T09:25:52.974Z,20.90
2023-05-20T09:27:56.253Z,20.80
2023-05-20T09:29:59.491Z,20.60
2023-05-20T09:32:04.000Z,20.60
2023-05-20T09:34:08.045Z,20.60
2023-05-20T09:36:11.788Z,20.50
2023-05-20T09:38:17.077Z,20.50
2023-05-20T09:40:25.034Z,20.30
2023-05-20T09:42:29.804Z,20.20
2023-05-20T09:44:34.338Z,20.10
2023-05-20T09:46:38.351Z,20.20
2023-05-20T09:48:41.247Z,20.00
2023-05-20T09:50:45.098Z,19.90
2023-05-20T09:52:48.890Z,19.80
2023-05-20T09:54:56.419Z,19.70
2023-05-20T09:57:01.385Z,19.80
2023-05-20T09:59:06.409Z,19.80
2023-05-20T10:01:09.360Z,19.80
2023-05-20T10:03:12.584Z,19.90
2023-05-20T10:05:19.304Z,20.00
2023-05-20T10:07:46.389Z,20.00
2023-05-20T10:10:04.221Z,20.00
2023-05-20T10:12:17.034Z,19.90
2023-05-20T10:14:34.773Z,19.70
2023-05-20T10:16:45.384Z,19.80
2023-05-20T10:18:57.963Z,19.70
2023-05-20T10:21:01.320Z,19.80
2023-05-20T10:23:05.520Z,19.80
2023-05-20T10:25:14.056Z,19.70
2023-05-20T10:27:19.126Z,19.50
2023-05-20T10:29:22.747Z,19.60
2023-05-20T10:31:26.048Z,19.80
2023-05-20T10:33:29.330Z,19.80
2023-05-20T10:35:32.585Z,19.90
2023-05-20T10:37:42.861Z,19.90
2023-05-20T10:39:45.967Z,19.90
2023-05-20T10:41:50.160Z,20.00
2023-05-20T10:44:03.440Z,20.10
2023-05-20T10:46:10.529Z,20.30
2023-05-20T10:48:25.842Z,20.20
2023-05-20T10:50:29.904Z,20.40
2023-05-20T10:52:35.074Z,20.40
2023-05-20T10:54:38.490Z,20.70
2023-05-20T10:56:51.416Z,21.00
2023-05-20T10:58:56.175Z,21.30
2023-05-20T11:00:59.193Z,21.60
2023-05-20T11:03:02.333Z,21.80
2023-05-20T11:05:06.558Z,22.00
2023-05-20T11:07:09.505Z,22.00
2023-05-20T11:09:13.716Z,22.20
2023-05-20T11:11:16.788Z,22.30
2023-05-20T11:13:19.586Z,22.40
2023-05-20T11:15:24.979Z,22.30
2023-05-20T11:17:27.898Z,22.30
2023-05-20T11:19:30.893Z,22.50
2023-05-20T11:21:34.261Z,22.30
2023-05-20T11:23:40.443Z,22.30
2023-05-20T11:25:43.656Z,22.50
2023-05-20T11:27:46.826Z,22.40
2023-05-20T11:29:51.796Z,22.50
2023-05-20T11:31:56.554Z,22.60
2023-05-20T11:34:01.491Z,22.80
2023-05-20T11:36:08.585Z,22.90
2023-05-20T11:38:16.516Z,23.10
2023-05-20T11:40:27.125Z,23.10
2023-05-20T11:42:32.758Z,23.20
2023-05-20T11:44:35.625Z,23.00
2023-05-20T11:46:43.288Z,22.80
2023-05-20T11:48:54.813Z,22.80
2023-05-20T11:51:00.630Z,22.90
2023-05-20T11:53:05.818Z,23.00
2023-05-20T11:55:12.110Z,23.00
2023-05-20T11:57:14.916Z,22.90
2023-05-20T11:59:17.696Z,22.80
2023-05-20T12:01:22.894Z,22.50
2023-05-20T12:03:26.647Z,22.40
2023-05-20T12:05:30.868Z,22.20
2023-05-20T12:07:33.689Z,22.20
2023-05-20T12:09:36.634Z,22.10
2023-05-20T12:11:41.576Z,22.00
2023-05-20T12:13:44.729Z,21.90
2023-05-20T12:15:47.524Z,21.70
2023-05-20T12:17:52.474Z,21.70
2023-05-20T12:19:55.396Z,21.80
2023-05-20T12:21:59.520Z,21.70
2023-05-20T12:24:02.366Z,21.60
2023-05-20T12:26:05.725Z,21.50
2023-05-20T12:28:08.556Z,21.60
2023-05-20T12:30:12.132Z,21.70
2023-05-20T12:32:14.991Z,21.80
2023-05-20T12:34:17.898Z,21.90
2023-05-20T12:36:20.821Z,22.10
2023-05-20T12:38:24.925Z,22.30
2023-05-20T12:40:27.695Z,22.20
2023-05-20T12:42:30.588Z,22.10
2023-05-20T12:44:33.344Z,22.20
2023-05-20T12:46:36.473Z,22.20
2023-05-20T12:48:41.719Z,22.30
2023-05-20T12:50:45.658Z,22.40
2023-05-20T12:52:48.443Z,22.30
2023-05-20T12:54:52.653Z,22.40
2023-05-20T12:56:55.691Z,22.60
2023-05-20T12:58:58.488Z,22.50
2023-05-20T13:01:01.414Z,22.60
2023-05-20T13:03:04.299Z,22.70
2023-05-20T13:05:07.653Z,22.90
2023-05-20T13:07:10.480Z,22.90
2023-05-20T13:09:13.215Z,22.90
2023-05-20T13:11:17.282Z,23.00
2023-05-20T13:13:21.742Z,23.00
2023-05-20T13:15:24.841Z,23.00
2023-05-20T13:17:28.229Z,23.00
2023-05-20T13:19:31.057Z,22.90
2023-05-20T13:21:34.361Z,22.70
2023-05-20T13:23:38.379Z,22.80
2023-05-20T13:25:41.193Z,22.80
2023-05-20T13:27:45.284Z,22.90
2023-05-20T13:29:48.029Z,23.00
2023-05-20T13:31:50.949Z,23.00
2023-05-20T13:33:55.158Z,23.10
2023-05-20T13:35:58.029Z,23.00
2023-05-20T13:38:00.868Z,22.70
2023-05-20T13:40:03.825Z,22.50
2023-05-20T13:42:07.175Z,22.30
2023-05-20T13:44:11.264Z,22.20
2023-05-20T13:46:14.118Z,22.10
2023-05-20T13:48:16.893Z,22.10
2023-05-20T13:50:20.722Z,22.00
2023-05-20T13:52:23.491Z,22.00
2023-05-20T13:54:26.241Z,21.90
2023-05-20T13:56:29.128Z,21.80
2023-05-20T13:58:32.023Z,21.60
2023-05-20T14:00:36.515Z,21.60
2023-05-20T14:02:39.625Z,21.80
2023-05-20T14:04:44.929Z,21.80
2023-05-20T14:06:47.822Z,21.70
2023-05-20T14:08:50.604Z,21.80
2023-05-20T14:10:54.953Z,21.70
2023-05-20T14:13:00.330Z,21.70
2023-05-20T14:15:03.102Z,21.80
2023-05-20T14:17:07.277Z,22.00
2023-05-20T14:19:10.096Z,22.20
2023-05-20T14:21:12.997Z,22.00
2023-05-20T14:23:15.946Z,21.90
2023-05-20T14:25:18.767Z,21.90
2023-05-20T14:27:21.856Z,21.90
2023-05-20T14:29:24.657Z,22.10
2023-05-20T14:31:27.772Z,22.10
2023-05-20T14:33:31.948Z,22.30
2023-05-20T14:35:34.991Z,22.40
2023-05-20T14:37:37.802Z,22.30
2023-05-20T14:39:40.793Z,22.30
2023-05-20T14:41:43.589Z,22.30
2023-05-20T14:43:46.397Z,22.20
2023-05-20T14:45:49.220Z,22.20
2023-05-20T14:47:52.053Z,22.20
2023-05-20T14:49:56.641Z,22.20
2023-05-20T14:51:59.480Z,22.40
2023-05-20T14:54:02.244Z,22.50
2023-05-20T14:56:05.788Z,22.70
2023-05-20T14:58:08.592Z,22.80
2023-05-20T15:00:12.748Z,23.20
2023-05-20T15:02:16.141Z,23.50
2023-05-20T15:04:19.013Z,23.90
2023-05-20T15:06:23.252Z,23.80
2023-05-20T15:08:26.002Z,23.50
2023-05-20T15:10:28.823Z,23.30
2023-05-20T15:12:31.644Z,23.30
2023-05-20T15:14:34.430Z,23.20
2023-05-20T15:16:37.282Z,23.20
2023-05-20T15:18:40.160Z,23.10
2023-05-20T15:20:43.279Z,23.10
2023-05-20T15:22:48.162Z,23.30
2023-05-20T15:25:00.190Z,23.50
2023-05-20T15:27:03.055Z,23.60
2023-05-20T15:29:06.511Z,24.00
2023-05-20T15:31:09.664Z,24.40
2023-05-20T15:33:12.554Z,24.50
2023-05-20T15:35:15.454Z,24.50
2023-05-20T15:37:18.367Z,24.70
2023-05-20T15:39:22.500Z,26.00
2023-05-20T15:41:25.966Z,27.00
2023-05-20T15:43:28.739Z,27.10
2023-05-20T15:45:32.412Z,26.50
2023-05-20T15:47:35.247Z,26.00
2023-05-20T15:49:38.283Z,26.10
2023-05-20T15:51:46.625Z,25.80
2023-05-20T15:53:58.477Z,25.50
2023-05-20T15:56:02.606Z,25.40
2023-05-20T15:58:05.587Z,25.00
2023-05-20T16:00:10.357Z,24.80
2023-05-20T16:02:13.198Z,24.80
2023-05-20T16:04:16.204Z,25.00
2023-05-20T16:06:19.213Z,25.20
2023-05-20T16:08:23.844Z,27.00
2023-05-20T16:10:32.417Z,29.90
2023-05-20T16:12:36.947Z,32.40
2023-05-20T16:14:39.699Z,33.70
2023-05-20T16:16:42.523Z,32.70
2023-05-20T16:18:45.423Z,33.10
2023-05-20T16:20:48.286Z,32.90
2023-05-20T16:22:51.067Z,33.40
2023-05-20T16:24:54.070Z,33.40
2023-05-20T16:26:56.865Z,33.60
2023-05-20T16:29:01.192Z,34.50
2023-05-20T16:31:04.054Z,35.30
2023-05-20T16:33:07.913Z,35.70
2023-05-20T16:35:11.204Z,35.50
2023-05-20T16:37:13.964Z,35.50
2023-05-20T16:39:17.322Z,34.00
2023-05-20T16:41:20.800Z,32.10
2023-05-20T16:43:23.534Z,30.70
2023-05-20T16:45:27.983Z,30.10
2023-05-20T16:47:32.848Z,29.70
2023-05-20T16:49:35.769Z,30.30
2023-05-20T16:51:38.584Z,31.40
2023-05-20T16:53:41.376Z,32.90
2023-05-20T16:55:44.184Z,34.30
2023-05-20T16:57:47.797Z,35.50
2023-05-20T16:59:50.850Z,36.30
2023-05-20T17:01:54.927Z,36.60
2023-05-20T17:03:57.750Z,36.60
2023-05-20T17:06:00.578Z,36.90
2023-05-20T17:08:03.482Z,36.30
2023-05-20T17:10:07.245Z,34.30
2023-05-20T17:12:10.049Z,32.70
2023-05-20T17:14:12.821Z,31.20
2023-05-20T17:16:15.588Z,30.20
2023-05-20T17:18:19.764Z,29.70
2023-05-20T17:20:22.566Z,30.00
2023-05-20T17:22:26.173Z,29.80
2023-05-20T17:24:28.900Z,29.70
2023-05-20T17:26:31.697Z,29.70
2023-05-20T17:28:34.488Z,29.40
2023-05-20T17:30:37.385Z,29.20
2023-05-20T17:32:40.651Z,28.70
2023-05-20T17:34:44.930Z,28.30
2023-05-20T17:36:47.844Z,28.80
2023-05-20T17:38:50.913Z,29.50
2023-05-20T17:40:54.506Z,30.00
2023-05-20T17:42:57.270Z,29.80
2023-05-20T17:45:00.034Z,29.30
2023-05-20T17:47:02.880Z,28.60
2023-05-20T17:49:05.762Z,28.10
2023-05-20T17:51:10.213Z,27.70
2023-05-20T17:53:13.021Z,27.10
2023-05-20T17:55:18.269Z,26.90
2023-05-20T17:57:21.105Z,26.70
2023-05-20T17:59:23.876Z,26.90
2023-05-20T18:01:26.950Z,27.20
2023-05-20T18:03:30.191Z,27.50
2023-05-20T18:05:37.487Z,27.50
2023-05-20T18:07:41.642Z,27.20
2023-05-20T18:09:44.592Z,26.90
2023-05-20T18:11:47.372Z,26.60
2023-05-20T18:14:02.607Z,26.20
2023-05-20T18:16:10.020Z,25.90
2023-05-20T18:18:12.846Z,25.60
2023-05-20T18:20:15.968Z,25.50
2023-05-20T18:22:18.768Z,25.40
2023-05-20T18:24:22.855Z,25.30
2023-05-20T18:26:26.455Z,24.90
2023-05-20T18:28:29.191Z,24.60
2023-05-20T18:30:36.341Z,24.30
2023-05-20T18:32:39.461Z,24.20
2023-05-20T18:34:42.453Z,24.00
2023-05-20T18:36:45.544Z,23.90
2023-05-20T18:38:48.290Z,23.70
2023-05-20T18:40:52.482Z,23.60
2023-05-20T18:42:55.382Z,23.50
2023-05-20T18:44:58.169Z,23.40
2023-05-20T18:47:01.054Z,23.30
2023-05-20T18:49:03.809Z,23.10
2023-05-20T18:51:06.727Z,23.00
2023-05-20T18:53:09.538Z,22.90
2023-05-20T18:55:12.277Z,22.70
2023-05-20T18:57:16.393Z,22.60
2023-05-20T18:59:19.297Z,22.60
2023-05-20T19:01:22.293Z,22.50
2023-05-20T19:03:25.288Z,22.40
2023-05-20T19:05:28.266Z,22.20
2023-05-20T19:07:31.601Z,22.10
2023-05-20T19:09:34.465Z,22.00
2023-05-20T19:11:37.291Z,21.90
2023-05-20T19:13:41.550Z,21.80
2023-05-20T19:15:44.316Z,21.70
2023-05-20T19:17:47.099Z,21.60
2023-05-20T19:19:50.108Z,21.50
2023-05-20T19:21:52.878Z,21.50
2023-05-20T19:23:56.216Z,21.40
2023-05-20T19:25:59.108Z,21.30
2023-05-20T19:28:01.892Z,21.30
2023-05-20T19:30:09.927Z,21.10
2023-05-20T19:32:13.636Z,21.10
2023-05-20T19:34:16.446Z,21.00
2023-05-20T19:36:19.287Z,20.90
2023-05-20T19:38:22.051Z,20.90
2023-05-20T19:40:24.826Z,20.70
2023-05-20T19:42:27.743Z,20.60
2023-05-20T19:44:30.533Z,20.60
2023-05-20T19:46:34.888Z,20.60
2023-05-20T19:48:38.029Z,20.50
2023-05-20T19:50:40.806Z,20.50
2023-05-20T19:52:43.594Z,20.40
2023-05-20T19:54:46.784Z,20.40
2023-05-20T19:56:49.519Z,20.50
2023-05-20T19:58:52.418Z,20.40
2023-05-20T20:00:55.314Z,20.30
2023-05-20T20:03:03.207Z,20.30
2023-05-20T20:05:07.580Z,20.30
2023-05-20T20:07:10.737Z,20.20
2023-05-20T20:09:13.461Z,20.20
2023-05-20T20:11:16.332Z,20.20
2023-05-20T20:13:19.317Z,20.10
2023-05-20T20:15:22.154Z,20.10
2023-05-20T20:17:25.036Z,20.00
2023-05-20T20:19:29.955Z,20.00
2023-05-20T20:21:32.768Z,19.90
2023-05-20T20:23:36.816Z,19.90
2023-05-20T20:25:42.438Z,20.00
2023-05-20T20:27:45.199Z,20.00
2023-05-20T20:29:48.038Z,20.10
2023-05-20T20:31:51.580Z,20.10
2023-05-20T20:33:54.521Z,20.10
2023-05-20T20:35:58.671Z,20.00
2023-05-20T20:38:08.307Z,20.00
2023-05-20T20:40:13.386Z,19.90
2023-05-20T20:42:16.698Z,19.90
2023-05-20T20:44:22.523Z,19.90
2023-05-20T20:46:27.485Z,19.80
2023-05-20T20:48:30.404Z,19.90
2023-05-20T20:50:33.882Z,19.80
2023-05-20T20:52:39.087Z,19.70
2023-05-20T20:54:43.358Z,19.60
2023-05-20T20:56:47.311Z,19.70
2023-05-20T20:58:53.965Z,19.60
2023-05-20T21:00:56.716Z,19.60
2023-05-20T21:02:59.700Z,19.60
2023-05-20T21:05:02.642Z,19.60
2023-05-20T21:07:05.515Z,19.50
2023-05-20T21:09:09.743Z,19.60
2023-05-20T21:11:12.537Z,19.60
2023-05-20T21:13:15.340Z,19.60
2023-05-20T21:15:18.342Z,19.70
2023-05-20T21:17:21.164Z,19.60
2023-05-20T21:19:23.965Z,19.70
2023-05-20T21:21:26.756Z,19.80
2023-05-20T21:23:29.528Z,19.80
2023-05-20T21:25:33.736Z,19.80
2023-05-20T21:27:36.587Z,19.80
2023-05-20T21:29:40.393Z,19.70
2023-05-20T21:31:43.336Z,19.70
2023-05-20T21:33:46.128Z,19.70
2023-05-20T21:35:48.945Z,19.80
2023-05-20T21:37:51.877Z,19.80
2023-05-20T21:39:54.632Z,19.80
2023-05-20T21:41:58.807Z,19.80
2023-05-20T21:44:01.578Z,19.90
2023-05-20T21:46:05.701Z,19.70
2023-05-20T21:48:08.451Z,19.70
2023-05-20T21:50:12.302Z,19.70
2023-05-20T21:52:15.119Z,19.70
2023-05-20T21:54:17.854Z,19.70
2023-05-20T21:56:21.660Z,19.70
2023-05-20T21:58:25.953Z,19.80
2023-05-20T22:00:28.820Z,19.70
2023-05-20T22:02:31.666Z,19.80
2023-05-20T22:04:34.718Z,19.80
2023-05-20T22:06:37.494Z,19.80
2023-05-20T22:08:40.816Z,19.80
2023-05-20T22:10:44.064Z,19.70
2023-05-20T22:12:47.498Z,19.70
2023-05-20T22:14:51.672Z,19.70
2023-05-20T22:16:54.482Z,19.60
2023-05-20T22:18:57.785Z,19.70
2023-05-20T22:21:01.061Z,19.60
2023-05-20T22:23:04.555Z,19.70
2023-05-20T22:25:08.225Z,19.60
2023-05-20T22:27:11.016Z,19.60
2023-05-20T22:29:13.798Z,19.60
2023-05-20T22:31:17.887Z,19.70
2023-05-20T22:33:22.777Z,19.60
2023-05-20T22:35:25.847Z,19.60
2023-05-20T22:37:29.906Z,19.60
2023-05-20T22:39:32.666Z,19.60
2023-05-20T22:41:35.443Z,19.60
2023-05-20T22:43:38.237Z,19.60
2023-05-20T22:45:41.090Z,19.60
2023-05-20T22:47:46.117Z,19.50
2023-05-20T22:49:48.855Z,19.50
2023-05-20T22:51:52.740Z,19.40
2023-05-20T22:53:55.932Z,19.40
2023-05-20T22:55:59.809Z,19.30
2023-05-20T22:58:02.568Z,19.40
2023-05-20T23:00:07.847Z,19.20
2023-05-20T23:02:10.619Z,19.30
2023-05-20T23:04:14.938Z,19.20
2023-05-20T23:06:17.749Z,19.30
2023-05-20T23:08:20.769Z,19.20
2023-05-20T23:10:24.351Z,19.20
2023-05-20T23:12:27.153Z,19.20
2023-05-20T23:14:29.880Z,19.10
2023-05-20T23:16:34.174Z,19.00
2023-05-20T23:18:37.159Z,19.00
2023-05-20T23:20:41.534Z,19.00
2023-05-20T23:22:44.359Z,19.00
2023-05-20T23:24:47.116Z,19.00
2023-05-20T23:26:49.845Z,19.00
2023-05-20T23:28:52.633Z,19.10
2023-05-20T23:30:55.466Z,19.10
2023-05-20T23:32:58.295Z,19.00
2023-05-20T23:35:04.698Z,19.00
2023-05-20T23:37:08.778Z,19.00
2023-05-20T23:39:11.542Z,19.00
2023-05-20T23:41:14.405Z,19.00
2023-05-20T23:43:17.637Z,18.80
2023-05-20T23:45:20.405Z,18.80
2023-05-20T23:47:25.962Z,18.90
2023-05-20T23:49:29.748Z,18.90
2023-05-20T23:51:32.751Z,18.90
2023-05-20T23:53:36.953Z,18.90
2023-05-20T23:55:39.655Z,18.80
2023-05-20T23:57:42.559Z,18.80
2023-05-20T23:59:45.666Z,18.80
